createdAt,value
2019-03-27T00:01:35.424Z,102217.08
2019-03-27T00:07:00.658Z,102217.69
2019-03-27T00:12:29.293Z,102220.58
2019-03-27T00:17:53.800Z,102223.77
2019-03-27T00:23:18.026Z,102226.80
2019-03-27T00:28:42.377Z,102226.70
2019-03-27T00:34:06.718Z,102230.74
2019-03-27T00:39:31.471Z,102231.94
2019-03-27T00:44:55.889Z,102227.61
2019-03-27T00:50:20.864Z,102229.81
2019-03-27T00:55:45.691Z,102231.34
2019-03-27T01:01:13.045Z,102222.47
2019-03-27T01:06:37.597Z,102213.45
2019-03-27T01:12:02.203Z,102217.58
2019-03-27T01:17:26.435Z,102223.02
2019-03-27T01:22:52.632Z,102212.53
2019-03-27T01:28:17.863Z,102209.10
2019-03-27T01:33:42.420Z,102207.25
2019-03-27T01:39:08.518Z,102208.20
2019-03-27T01:44:33.645Z,102208.21
2019-03-27T01:49:59.018Z,102219.92
2019-03-27T01:55:24.241Z,102223.57
2019-03-27T02:00:48.609Z,102224.52
2019-03-27T02:06:13.117Z,102227.31
2019-03-27T02:11:38.759Z,102231.39
2019-03-27T02:17:03.931Z,102230.41
2019-03-27T02:22:28.329Z,102236.17
2019-03-27T02:27:52.512Z,102235.92
2019-03-27T02:33:17.888Z,102231.11
2019-03-27T02:38:42.625Z,102226.91
2019-03-27T02:44:06.940Z,102228.55
2019-03-27T02:49:32.013Z,102228.63
2019-03-27T02:54:57.395Z,102231.98
2019-03-27T03:00:22.954Z,102234.58
2019-03-27T03:05:47.410Z,102235.46
2019-03-27T03:11:12.650Z,102227.96
2019-03-27T03:16:42.868Z,102230.64
2019-03-27T03:22:03.346Z,102243.58
2019-03-27T03:27:28.998Z,102236.96
2019-03-27T03:32:54.454Z,102233.20
2019-03-27T03:38:19.529Z,102245.22
2019-03-27T03:43:44.042Z,102243.44
2019-03-27T03:49:09.491Z,102239.22
2019-03-27T03:54:34.565Z,102247.80
2019-03-27T04:00:02.762Z,102255.05
2019-03-27T04:05:27.583Z,102260.97
2019-03-27T04:10:52.606Z,102258.17
2019-03-27T04:16:17.052Z,102265.68
2019-03-27T04:21:41.510Z,102264.57
2019-03-27T04:27:06.947Z,102268.14
2019-03-27T04:32:31.885Z,102275.48
2019-03-27T04:37:56.239Z,102277.63
2019-03-27T04:43:21.278Z,102281.41
2019-03-27T04:48:46.889Z,102289.96
2019-03-27T04:54:12.602Z,102285.08
2019-03-27T04:59:37.073Z,102279.84
2019-03-27T05:05:02.362Z,102283.77
2019-03-27T05:10:28.740Z,102285.97
2019-03-27T05:15:54.003Z,102290.72
2019-03-27T05:21:19.655Z,102286.58
2019-03-27T05:26:44.923Z,102295.77
2019-03-27T05:32:09.839Z,102306.77
2019-03-27T05:37:34.836Z,102310.03
2019-03-27T05:43:01.215Z,102302.20
2019-03-27T05:48:25.832Z,102313.48
2019-03-27T05:53:50.831Z,102319.99
2019-03-27T05:59:16.250Z,102319.31
2019-03-27T06:04:40.748Z,102319.20
2019-03-27T06:10:06.692Z,102329.64
2019-03-27T06:15:32.168Z,102335.50
2019-03-27T06:20:56.658Z,102338.19
2019-03-27T06:26:22.081Z,102349.89
2019-03-27T06:31:47.191Z,102349.78
2019-03-27T06:37:12.427Z,102355.33
2019-03-27T06:42:37.253Z,102361.13
2019-03-27T06:48:02.005Z,102364.16
2019-03-27T06:53:27.076Z,102357.20
2019-03-27T06:58:54.846Z,102359.77
2019-03-27T07:04:16.847Z,102362.27
2019-03-27T07:09:42.647Z,102357.02
2019-03-27T07:15:08.417Z,102363.95
2019-03-27T07:20:33.459Z,102372.58
2019-03-27T07:25:59.023Z,102370.88
2019-03-27T07:31:23.973Z,102377.50
2019-03-27T07:36:48.445Z,102385.01
2019-03-27T07:42:12.752Z,102386.15
2019-03-27T07:47:38.564Z,102385.62
2019-03-27T07:53:03.102Z,102393.42
2019-03-27T07:58:28.453Z,102396.52
2019-03-27T08:03:52.847Z,102398.86
2019-03-27T08:09:17.347Z,102394.25
2019-03-27T08:14:42.521Z,102394.05
2019-03-27T08:20:09.409Z,102397.63
2019-03-27T08:25:34.585Z,102396.09
2019-03-27T08:30:59.825Z,102393.02
2019-03-27T08:36:24.794Z,102389.17
2019-03-27T08:41:50.057Z,102400.66
2019-03-27T08:47:14.855Z,102402.67
2019-03-27T08:52:40.132Z,102403.47
2019-03-27T08:58:05.778Z,102410.84
2019-03-27T09:03:30.130Z,102418.59
2019-03-27T09:08:54.527Z,102419.33
2019-03-27T09:14:19.707Z,102410.23
2019-03-27T09:19:44.666Z,102409.55
2019-03-27T09:25:10.060Z,102421.92
2019-03-27T09:30:35.293Z,102424.56
2019-03-27T09:35:59.414Z,102432.75
2019-03-27T09:41:24.787Z,102431.98
2019-03-27T09:46:49.962Z,102430.55
2019-03-27T09:52:15.473Z,102426.69
2019-03-27T09:57:40.485Z,102432.83
2019-03-27T10:03:06.169Z,102415.94
2019-03-27T10:08:30.611Z,102412.48
2019-03-27T10:13:55.948Z,102426.37
2019-03-27T10:19:21.415Z,102426.97
2019-03-27T10:24:45.567Z,102435.11
2019-03-27T10:30:10.895Z,102434.65
2019-03-27T10:35:36.117Z,102440.75
2019-03-27T10:41:01.476Z,102446.66
2019-03-27T10:46:26.610Z,102439.33
2019-03-27T10:51:51.049Z,102439.17
2019-03-27T10:57:16.291Z,102445.97
2019-03-27T11:02:41.455Z,102448.06
2019-03-27T11:08:06.826Z,102441.66
2019-03-27T11:13:34.250Z,102439.03
2019-03-27T11:18:57.905Z,102441.88
2019-03-27T11:24:22.680Z,102449.39
2019-03-27T11:29:47.600Z,102446.35
2019-03-27T11:35:12.458Z,102442.96
2019-03-27T11:40:37.649Z,102445.02
2019-03-27T11:46:03.179Z,102444.28
2019-03-27T11:51:28.256Z,102438.98
2019-03-27T11:56:52.386Z,102437.02
2019-03-27T12:02:18.199Z,102439.91
2019-03-27T12:07:43.200Z,102434.61
2019-03-27T12:13:07.992Z,102421.86
2019-03-27T12:18:33.243Z,102421.00
2019-03-27T12:23:59.004Z,102423.77
2019-03-27T12:29:24.620Z,102421.33
2019-03-27T12:34:48.878Z,102424.56
2019-03-27T12:40:13.423Z,102424.70
2019-03-27T12:45:38.480Z,102411.16
2019-03-27T12:51:12.614Z,102409.58
2019-03-27T12:56:31.325Z,102401.85
2019-03-27T13:01:57.561Z,102405.12
2019-03-27T13:07:22.790Z,102404.05
2019-03-27T13:12:47.674Z,102405.18
2019-03-27T13:18:13.001Z,102398.88
2019-03-27T13:23:37.807Z,102408.77
2019-03-27T13:29:02.709Z,102409.99
2019-03-27T13:34:28.669Z,102412.63
2019-03-27T13:39:52.929Z,102403.59
2019-03-27T13:45:18.936Z,102404.75
2019-03-27T13:50:42.996Z,102401.22
2019-03-27T13:56:07.501Z,102385.61
2019-03-27T14:01:32.683Z,102393.32
2019-03-27T14:06:57.021Z,102397.15
2019-03-27T14:12:21.234Z,102389.31
2019-03-27T14:17:45.949Z,102385.72
2019-03-27T14:23:11.396Z,102392.19
2019-03-27T14:28:35.938Z,102378.03
2019-03-27T14:34:00.247Z,102389.14
2019-03-27T14:39:25.375Z,102395.86
2019-03-27T14:44:50.448Z,102391.57
2019-03-27T14:50:16.283Z,102385.97
2019-03-27T14:55:41.545Z,102389.09
2019-03-27T15:01:06.133Z,102388.88
2019-03-27T15:06:31.096Z,102385.77
2019-03-27T15:11:56.638Z,102374.61
2019-03-27T15:17:21.272Z,102375.70
2019-03-27T15:22:46.614Z,102371.30
2019-03-27T15:28:11.681Z,102368.27
2019-03-27T15:33:36.922Z,102367.80
2019-03-27T15:39:01.513Z,102359.42
2019-03-27T15:44:27.602Z,102359.13
2019-03-27T15:49:53.094Z,102357.16
2019-03-27T15:55:17.753Z,102349.85
2019-03-27T16:00:41.941Z,102347.73
2019-03-27T16:06:07.027Z,102351.94
2019-03-27T16:11:32.145Z,102358.52
2019-03-27T16:17:12.319Z,102359.66
2019-03-27T16:22:22.399Z,102359.41
2019-03-27T16:27:47.701Z,102364.47
2019-03-27T16:33:12.573Z,102359.92
2019-03-27T16:38:36.953Z,102368.45
2019-03-27T16:44:02.438Z,102372.25
2019-03-27T16:49:27.367Z,102365.73
2019-03-27T16:54:51.888Z,102376.60
2019-03-27T17:00:17.460Z,102368.41
2019-03-27T17:05:53.254Z,102376.03
2019-03-27T17:11:08.644Z,102380.17
2019-03-27T17:16:34.025Z,102388.26
2019-03-27T17:21:59.467Z,102384.52
2019-03-27T17:27:23.578Z,102381.05
2019-03-27T17:32:50.106Z,102375.43
2019-03-27T17:38:15.077Z,102386.70
2019-03-27T17:43:39.497Z,102392.50
2019-03-27T17:49:04.533Z,102405.34
2019-03-27T17:54:29.422Z,102399.80
2019-03-27T17:59:54.344Z,102401.83
2019-03-27T18:05:18.551Z,102407.06
2019-03-27T18:10:43.324Z,102413.20
2019-03-27T18:16:07.617Z,102422.84
2019-03-27T18:21:32.466Z,102412.77
2019-03-27T18:26:58.697Z,102419.23
2019-03-27T18:32:24.091Z,102415.59
2019-03-27T18:37:49.699Z,102423.70
2019-03-27T18:43:14.723Z,102421.47
2019-03-27T18:48:39.815Z,102429.72
2019-03-27T18:54:05.374Z,102442.05
2019-03-27T18:59:31.467Z,102436.65
2019-03-27T19:04:56.993Z,102449.50
2019-03-27T19:10:22.339Z,102450.00
2019-03-27T19:15:47.243Z,102442.96
2019-03-27T19:21:12.230Z,102444.53
2019-03-27T19:26:37.409Z,102450.86
2019-03-27T19:32:01.574Z,102451.32
2019-03-27T19:37:25.865Z,102450.35
2019-03-27T19:42:52.136Z,102446.04
2019-03-27T19:48:16.623Z,102453.70
2019-03-27T19:53:41.028Z,102453.09
2019-03-27T19:59:05.436Z,102454.74
2019-03-27T20:04:30.753Z,102450.02
2019-03-27T20:09:56.843Z,102448.70
2019-03-27T20:15:21.243Z,102447.78
2019-03-27T20:20:46.185Z,102444.99
2019-03-27T20:26:12.435Z,102441.70
2019-03-27T20:31:36.685Z,102447.47
2019-03-27T20:37:01.598Z,102451.22
2019-03-27T20:42:25.956Z,102438.86
2019-03-27T20:47:51.333Z,102458.91
2019-03-27T20:53:15.862Z,102456.72
2019-03-27T20:58:40.834Z,102450.98
2019-03-27T21:04:05.287Z,102453.01
2019-03-27T21:09:30.257Z,102448.11
2019-03-27T21:14:55.469Z,102447.11
2019-03-27T21:20:20.055Z,102455.27
2019-03-27T21:25:45.291Z,102451.67
2019-03-27T21:31:13.246Z,102441.08
2019-03-27T21:36:38.907Z,102447.41
2019-03-27T21:42:04.579Z,102448.60
2019-03-27T21:47:28.881Z,102455.62
2019-03-27T21:53:00.505Z,102450.02
2019-03-27T21:58:21.079Z,102458.28
2019-03-27T22:03:45.540Z,102455.28
2019-03-27T22:09:10.354Z,102455.34
2019-03-27T22:14:37.026Z,102461.91
2019-03-27T22:20:01.808Z,102455.84
2019-03-27T22:25:35.976Z,102465.90
2019-03-27T22:30:53.712Z,102466.22
2019-03-27T22:36:18.146Z,102464.06
2019-03-27T22:41:43.353Z,102464.59
2019-03-27T22:47:07.851Z,102467.14
2019-03-27T22:52:32.683Z,102464.63
2019-03-27T22:57:57.770Z,102466.32
2019-03-27T23:03:22.946Z,102467.14
2019-03-27T23:08:48.518Z,102465.48
2019-03-27T23:14:13.487Z,102459.37
2019-03-27T23:19:39.197Z,102462.76
2019-03-27T23:25:05.061Z,102464.59
2019-03-27T23:30:30.186Z,102464.06
2019-03-27T23:35:54.573Z,102466.29
2019-03-27T23:41:18.723Z,102466.29
2019-03-27T23:46:44.011Z,102460.57
2019-03-27T23:52:09.315Z,102457.08
2019-03-27T23:57:37.654Z,102456.19
